createdAt,value
2018-03-01T00:00:47.066Z,-6.76
2018-03-01T00:03:14.491Z,-6.76
2018-03-01T00:05:41.902Z,-6.75
2018-03-01T00:08:09.326Z,-6.81
2018-03-01T00:10:36.740Z,-6.80
2018-03-01T00:13:04.199Z,-6.74
2018-03-01T00:15:31.602Z,-6.79
2018-03-01T00:17:59.017Z,-6.80
2018-03-01T00:20:26.416Z,-6.83
2018-03-01T00:22:53.848Z,-6.79
2018-03-01T00:25:21.269Z,-6.78
2018-03-01T00:27:48.685Z,-6.83
2018-03-01T00:30:16.112Z,-6.79
2018-03-01T00:32:44.274Z,-6.83
2018-03-01T00:35:12.476Z,-6.83
2018-03-01T00:37:39.896Z,-6.87
2018-03-01T00:40:07.306Z,-6.87
2018-03-01T00:42:34.731Z,-6.88
2018-03-01T00:45:02.188Z,-6.90
2018-03-01T00:47:29.826Z,-6.91
2018-03-01T00:49:57.258Z,-7.00
2018-03-01T00:52:24.667Z,-7.07
2018-03-01T00:54:52.096Z,-7.13
2018-03-01T00:57:19.505Z,-7.17
2018-03-01T00:59:46.920Z,-7.16
2018-03-01T01:02:14.328Z,-7.22
2018-03-01T01:04:41.767Z,-7.22
2018-03-01T01:07:09.177Z,-7.23
2018-03-01T01:09:37.544Z,-7.27
2018-03-01T01:12:04.951Z,-7.32
2018-03-01T01:14:32.368Z,-7.37
2018-03-01T01:16:59.771Z,-7.35
2018-03-01T01:19:27.190Z,-7.43
2018-03-01T01:21:54.599Z,-7.43
2018-03-01T01:24:22.303Z,-7.47
2018-03-01T01:26:49.731Z,-7.47
2018-03-01T01:29:17.140Z,-7.50
2018-03-01T01:31:44.982Z,-7.52
2018-03-01T01:34:12.416Z,-7.55
2018-03-01T01:36:39.837Z,-7.53
2018-03-01T01:39:07.253Z,-7.58
2018-03-01T01:41:34.712Z,-7.63
2018-03-01T01:44:02.126Z,-7.65
2018-03-01T01:46:29.541Z,-7.64
2018-03-01T01:48:56.961Z,-7.64
2018-03-01T01:51:24.381Z,-7.71
2018-03-01T01:53:51.793Z,-7.68
2018-03-01T01:56:19.208Z,-7.76
2018-03-01T01:58:46.622Z,-7.78
2018-03-01T02:01:14.058Z,-7.78
2018-03-01T02:03:41.461Z,-7.83
2018-03-01T02:06:09.678Z,-7.85
2018-03-01T02:08:37.094Z,-7.89
2018-03-01T02:11:04.625Z,-7.89
2018-03-01T02:13:32.031Z,-7.91
2018-03-01T02:15:59.445Z,-7.91
2018-03-01T02:18:26.853Z,-7.89
2018-03-01T02:20:54.278Z,-7.86
2018-03-01T02:23:21.691Z,-7.88
2018-03-01T02:25:49.100Z,-7.87
2018-03-01T02:28:16.508Z,-7.90
2018-03-01T02:30:43.936Z,-7.82
2018-03-01T02:33:11.348Z,-7.82
2018-03-01T02:35:38.769Z,-7.80
2018-03-01T02:38:06.178Z,-7.79
2018-03-01T02:40:33.596Z,-7.79
2018-03-01T02:43:01.023Z,-7.84
2018-03-01T02:45:28.437Z,-7.88
2018-03-01T02:47:55.847Z,-7.90
2018-03-01T02:50:23.269Z,-7.92
2018-03-01T02:52:50.688Z,-7.92
2018-03-01T02:55:19.000Z,-7.92
2018-03-01T02:57:46.417Z,-7.93
2018-03-01T03:00:13.836Z,-7.92
2018-03-01T03:02:42.027Z,-7.92
2018-03-01T03:05:09.438Z,-7.93
2018-03-01T03:07:36.860Z,-7.92
2018-03-01T03:10:04.325Z,-7.92
2018-03-01T03:12:31.754Z,-7.88
2018-03-01T03:14:59.156Z,-7.91
2018-03-01T03:17:26.586Z,-7.91
2018-03-01T03:19:53.996Z,-7.90
2018-03-01T03:22:21.430Z,-7.91
2018-03-01T03:24:48.838Z,-7.89
2018-03-01T03:27:16.256Z,-7.86
2018-03-01T03:29:43.669Z,-7.87
2018-03-01T03:32:11.089Z,-7.88
2018-03-01T03:34:38.493Z,-7.80
2018-03-01T03:37:05.908Z,-7.84
2018-03-01T03:39:33.327Z,-7.85
2018-03-01T03:42:00.754Z,-7.86
2018-03-01T03:44:28.163Z,-7.83
2018-03-01T03:46:55.584Z,-7.79
2018-03-01T03:49:22.997Z,-7.77
2018-03-01T03:51:50.418Z,-7.78
2018-03-01T03:54:17.825Z,-7.76
2018-03-01T03:56:45.244Z,-7.82
2018-03-01T03:59:12.657Z,-7.77
2018-03-01T04:01:40.087Z,-7.78
2018-03-01T04:04:07.495Z,-7.77
2018-03-01T04:06:34.917Z,-7.75
2018-03-01T04:09:02.341Z,-7.76
2018-03-01T04:11:29.749Z,-7.75
2018-03-01T04:13:57.177Z,-7.78
2018-03-01T04:16:24.937Z,-7.74
2018-03-01T04:18:52.354Z,-7.75
2018-03-01T04:21:19.775Z,-7.75
2018-03-01T04:23:47.189Z,-7.67
2018-03-01T04:26:14.613Z,-7.70
2018-03-01T04:28:42.021Z,-7.69
2018-03-01T04:31:09.440Z,-7.66
2018-03-01T04:33:36.858Z,-7.63
2018-03-01T04:36:04.276Z,-7.62
2018-03-01T04:38:31.697Z,-7.60
2018-03-01T04:40:59.108Z,-7.61
2018-03-01T04:43:26.531Z,-7.58
2018-03-01T04:45:53.968Z,-7.58
2018-03-01T04:48:21.397Z,-7.54
2018-03-01T04:50:48.828Z,-7.54
2018-03-01T04:53:17.213Z,-7.53
2018-03-01T04:55:44.630Z,-7.47
2018-03-01T04:58:12.052Z,-7.50
2018-03-01T05:00:39.465Z,-7.51
2018-03-01T05:03:06.892Z,-7.46
2018-03-01T05:05:34.307Z,-7.43
2018-03-01T05:08:01.735Z,-7.47
2018-03-01T05:10:29.144Z,-7.41
2018-03-01T05:12:56.577Z,-7.38
2018-03-01T05:15:23.985Z,-7.38
2018-03-01T05:17:51.401Z,-7.32
2018-03-01T05:20:18.828Z,-7.35
2018-03-01T05:22:46.230Z,-7.34
2018-03-01T05:25:13.649Z,-7.32
2018-03-01T05:27:41.573Z,-7.34
2018-03-01T05:30:09.002Z,-7.30
2018-03-01T05:32:36.419Z,-7.34
2018-03-01T05:35:03.826Z,-7.24
2018-03-01T05:37:31.247Z,-7.28
2018-03-01T05:39:58.660Z,-7.23
2018-03-01T05:42:26.081Z,-7.20
2018-03-01T05:44:53.520Z,-7.22
2018-03-01T05:47:20.925Z,-7.21
2018-03-01T05:49:48.346Z,-7.15
2018-03-01T05:52:15.752Z,-7.17
2018-03-01T05:54:43.182Z,-7.21
2018-03-01T05:57:10.593Z,-7.17
2018-03-01T05:59:38.022Z,-7.18
2018-03-01T06:02:05.441Z,-7.10
2018-03-01T06:04:32.875Z,-7.10
2018-03-01T06:07:00.297Z,-7.02
2018-03-01T06:09:27.735Z,-7.01
2018-03-01T06:11:55.131Z,-7.04
2018-03-01T06:14:22.550Z,-7.01
2018-03-01T06:16:49.957Z,-6.98
2018-03-01T06:19:17.377Z,-6.94
2018-03-01T06:21:44.795Z,-6.93
2018-03-01T06:24:12.208Z,-6.86
2018-03-01T06:26:39.631Z,-6.83
2018-03-01T06:29:07.043Z,-6.89
2018-03-01T06:31:34.497Z,-6.90
2018-03-01T06:34:01.910Z,-6.90
2018-03-01T06:36:29.321Z,-6.80
2018-03-01T06:38:56.765Z,-6.74
2018-03-01T06:41:24.184Z,-6.76
2018-03-01T06:43:52.589Z,-6.79
2018-03-01T06:46:20.013Z,-6.77
2018-03-01T06:48:47.427Z,-6.67
2018-03-01T06:51:14.853Z,-6.61
2018-03-01T06:53:42.272Z,-6.65
2018-03-01T06:56:09.689Z,-6.59
2018-03-01T06:58:37.103Z,-6.52
2018-03-01T07:01:04.552Z,-6.61
2018-03-01T07:03:31.966Z,-6.58
2018-03-01T07:05:59.385Z,-6.55
2018-03-01T07:08:26.792Z,-6.51
2018-03-01T07:10:54.220Z,-6.39
2018-03-01T07:13:21.630Z,-6.48
2018-03-01T07:15:49.083Z,-6.40
2018-03-01T07:18:16.493Z,-6.38
2018-03-01T07:20:43.901Z,-6.31
2018-03-01T07:23:11.304Z,-6.26
2018-03-01T07:25:38.721Z,-6.33
2018-03-01T07:28:06.130Z,-6.31
2018-03-01T07:30:33.557Z,-6.26
2018-03-01T07:33:01.035Z,-6.25
2018-03-01T07:35:28.398Z,-6.13
2018-03-01T07:37:55.812Z,-5.95
2018-03-01T07:40:23.822Z,-5.99
2018-03-01T07:42:51.242Z,-5.90
2018-03-01T07:45:18.661Z,-5.83
2018-03-01T07:47:46.069Z,-5.84
2018-03-01T07:50:13.496Z,-5.60
2018-03-01T07:52:40.918Z,-5.69
2018-03-01T07:55:08.330Z,-5.61
2018-03-01T07:57:35.748Z,-5.58
2018-03-01T08:00:03.165Z,-5.52
2018-03-01T08:02:30.573Z,-5.42
2018-03-01T08:04:57.977Z,-5.40
2018-03-01T08:07:25.396Z,-5.41
2018-03-01T08:09:52.807Z,-5.32
2018-03-01T08:12:20.221Z,-5.42
2018-03-01T08:14:47.641Z,-5.41
2018-03-01T08:17:15.057Z,-5.29
2018-03-01T08:19:42.465Z,-5.40
2018-03-01T08:22:09.895Z,-5.29
2018-03-01T08:24:37.296Z,-5.12
2018-03-01T08:27:04.720Z,-5.05
2018-03-01T08:29:32.137Z,-5.10
2018-03-01T08:31:59.564Z,-4.98
2018-03-01T08:34:26.962Z,-4.99
2018-03-01T08:36:55.144Z,-5.06
2018-03-01T08:39:22.562Z,-4.94
2018-03-01T08:41:49.982Z,-4.89
2018-03-01T08:44:17.392Z,-4.90
2018-03-01T08:46:44.829Z,-4.66
2018-03-01T08:49:12.237Z,-4.71
2018-03-01T08:51:39.664Z,-4.78
2018-03-01T08:54:07.078Z,-4.74
2018-03-01T08:56:34.506Z,-4.76
2018-03-01T08:59:01.918Z,-4.78
2018-03-01T09:01:29.371Z,-4.95
2018-03-01T09:03:56.761Z,-4.90
2018-03-01T09:06:24.185Z,-4.96
2018-03-01T09:08:51.602Z,-5.05
2018-03-01T09:11:19.012Z,-4.86
2018-03-01T09:13:46.434Z,-4.83
2018-03-01T09:16:13.849Z,-4.92
2018-03-01T09:18:41.269Z,-4.90
2018-03-01T09:21:08.677Z,-4.66
2018-03-01T09:23:36.104Z,-4.38
2018-03-01T09:26:03.520Z,-4.26
2018-03-01T09:28:30.941Z,-4.38
2018-03-01T09:30:58.356Z,-4.22
2018-03-01T09:33:26.574Z,-4.38
2018-03-01T09:35:53.987Z,-4.34
2018-03-01T09:38:21.405Z,-4.34
2018-03-01T09:40:49.473Z,-4.41
2018-03-01T09:43:16.897Z,-4.33
2018-03-01T09:45:44.299Z,-3.98
2018-03-01T09:48:11.721Z,-3.97
2018-03-01T09:50:39.134Z,-4.01
2018-03-01T09:53:06.558Z,-3.78
2018-03-01T09:55:33.969Z,-3.72
2018-03-01T09:58:01.405Z,-3.81
2018-03-01T10:00:28.800Z,-3.57
2018-03-01T10:02:56.217Z,-3.44
2018-03-01T10:05:23.625Z,-3.51
2018-03-01T10:07:51.050Z,-3.36
2018-03-01T10:10:18.461Z,-3.68
2018-03-01T10:12:45.867Z,-3.44
2018-03-01T10:15:13.288Z,-3.29
2018-03-01T10:17:40.693Z,-3.67
2018-03-01T10:20:08.110Z,-3.62
2018-03-01T10:22:35.532Z,-3.33
2018-03-01T10:25:02.950Z,-3.40
2018-03-01T10:27:30.370Z,-3.41
2018-03-01T10:29:58.014Z,-3.46
2018-03-01T10:32:25.424Z,-3.31
2018-03-01T10:34:52.845Z,-3.07
2018-03-01T10:37:20.253Z,-3.33
2018-03-01T10:39:47.687Z,-3.34
2018-03-01T10:42:15.097Z,-3.30
2018-03-01T10:44:42.525Z,-3.15
2018-03-01T10:47:09.933Z,-3.24
2018-03-01T10:49:37.356Z,-3.08
2018-03-01T10:52:04.766Z,-2.94
2018-03-01T10:54:32.189Z,-2.82
2018-03-01T10:56:59.601Z,-2.74
2018-03-01T10:59:27.067Z,-2.55
2018-03-01T11:01:54.437Z,-2.46
2018-03-01T11:04:21.861Z,-2.46
2018-03-01T11:06:49.270Z,-2.15
2018-03-01T11:09:16.685Z,-1.69
2018-03-01T11:11:44.097Z,-1.97
2018-03-01T11:14:11.540Z,-1.84
2018-03-01T11:16:38.940Z,-1.84
2018-03-01T11:19:06.354Z,-2.02
2018-03-01T11:21:33.777Z,-1.91
2018-03-01T11:24:01.203Z,-2.09
2018-03-01T11:26:29.633Z,-2.17
2018-03-01T11:28:57.042Z,-1.95
2018-03-01T11:31:24.465Z,-1.78
2018-03-01T11:33:51.878Z,-1.99
2018-03-01T11:36:19.284Z,-1.92
2018-03-01T11:38:46.695Z,-1.90
2018-03-01T11:41:14.119Z,-2.05
2018-03-01T11:43:41.527Z,-2.10
2018-03-01T11:46:08.937Z,-1.95
2018-03-01T11:48:36.356Z,-1.81
2018-03-01T11:51:03.762Z,-1.59
2018-03-01T11:53:31.178Z,-1.77
2018-03-01T11:55:58.603Z,-1.66
2018-03-01T11:58:26.026Z,-1.48
2018-03-01T12:00:53.444Z,-1.63
2018-03-01T12:03:20.853Z,-1.57
2018-03-01T12:05:48.285Z,-1.22
2018-03-01T12:08:15.699Z,-1.15
2018-03-01T12:10:43.109Z,-1.29
2018-03-01T12:13:10.517Z,-1.29
2018-03-01T12:15:37.938Z,-1.29
2018-03-01T12:18:05.353Z,-1.18
2018-03-01T12:20:32.777Z,-1.08
2018-03-01T12:23:00.186Z,-0.76
2018-03-01T12:25:27.611Z,-1.16
2018-03-01T12:27:55.030Z,-1.08
2018-03-01T12:30:22.452Z,-1.08
2018-03-01T12:32:49.881Z,-1.25
2018-03-01T12:35:17.280Z,-1.42
2018-03-01T12:37:44.707Z,-1.38
2018-03-01T12:40:12.116Z,-1.28
2018-03-01T12:42:39.531Z,-0.90
2018-03-01T12:45:06.928Z,-0.70
2018-03-01T12:47:34.352Z,-0.57
2018-03-01T12:50:02.270Z,0.00
2018-03-01T12:52:29.676Z,0.25
2018-03-01T12:54:57.104Z,-0.15
2018-03-01T12:57:24.518Z,0.08
2018-03-01T12:59:51.945Z,0.08
2018-03-01T13:02:19.375Z,-0.22
2018-03-01T13:04:46.775Z,-0.27
2018-03-01T13:07:14.201Z,-0.47
2018-03-01T13:09:41.621Z,-0.68
2018-03-01T13:12:09.313Z,-0.74
2018-03-01T13:14:36.714Z,-0.77
2018-03-01T13:17:04.134Z,-0.90
2018-03-01T13:19:31.537Z,-0.87
2018-03-01T13:21:58.977Z,-0.86
2018-03-01T13:24:26.389Z,-0.62
2018-03-01T13:26:53.809Z,-0.48
2018-03-01T13:29:21.218Z,-0.67
2018-03-01T13:31:48.953Z,-0.59
2018-03-01T13:34:16.370Z,-0.44
2018-03-01T13:36:43.782Z,-0.34
2018-03-01T13:39:11.201Z,-0.18
2018-03-01T13:41:39.543Z,-0.19
2018-03-01T13:44:06.958Z,-0.23
2018-03-01T13:46:35.382Z,-0.12
2018-03-01T13:49:02.792Z,-0.30
2018-03-01T13:51:30.206Z,-0.15
2018-03-01T13:53:57.620Z,-0.22
2018-03-01T13:56:25.029Z,-0.20
2018-03-01T13:58:52.453Z,-0.30
2018-03-01T14:01:19.866Z,-0.08
2018-03-01T14:03:47.282Z,0.23
2018-03-01T14:06:14.686Z,0.15
2018-03-01T14:08:42.106Z,0.14
2018-03-01T14:11:09.523Z,-0.13
2018-03-01T14:13:36.929Z,0.03
2018-03-01T14:16:05.130Z,0.23
2018-03-01T14:18:37.386Z,0.15
2018-03-01T14:21:08.269Z,0.06
2018-03-01T14:23:43.036Z,0.01
2018-03-01T14:26:11.738Z,0.05
2018-03-01T14:28:41.082Z,-0.04
2018-03-01T14:31:08.485Z,0.09
2018-03-01T14:33:35.904Z,0.03
2018-03-01T14:36:03.308Z,-0.07
2018-03-01T14:38:30.750Z,-0.07
2018-03-01T14:40:58.165Z,0.02
2018-03-01T14:43:25.594Z,-0.19
2018-03-01T14:45:53.005Z,-0.22
2018-03-01T14:48:20.434Z,-0.25
2018-03-01T14:50:47.843Z,-0.25
2018-03-01T14:53:15.253Z,-0.26
2018-03-01T14:55:42.679Z,-0.22
2018-03-01T14:58:10.083Z,-0.23
2018-03-01T15:00:37.505Z,-0.35
2018-03-01T15:03:04.958Z,-0.19
2018-03-01T15:05:32.374Z,-0.19
2018-03-01T15:07:59.793Z,-0.23
2018-03-01T15:10:27.228Z,-0.22
2018-03-01T15:12:54.625Z,-0.23
2018-03-01T15:15:22.048Z,-0.29
2018-03-01T15:17:49.463Z,-0.30
2018-03-01T15:20:16.886Z,-0.26
2018-03-01T15:22:44.293Z,-0.28
2018-03-01T15:25:11.717Z,-0.20
2018-03-01T15:27:39.130Z,-0.24
2018-03-01T15:30:06.548Z,-0.28
2018-03-01T15:32:33.958Z,-0.27
2018-03-01T15:35:01.382Z,-0.23
2018-03-01T15:37:28.798Z,-0.15
2018-03-01T15:39:56.218Z,-0.14
2018-03-01T15:42:23.631Z,-0.20
2018-03-01T15:44:51.054Z,-0.14
2018-03-01T15:47:18.463Z,-0.11
2018-03-01T15:49:45.881Z,-0.01
2018-03-01T15:52:13.306Z,-0.05
2018-03-01T15:54:40.740Z,-0.08
2018-03-01T15:57:08.877Z,-0.10
2018-03-01T15:59:36.286Z,-0.06
2018-03-01T16:02:03.700Z,-0.13
2018-03-01T16:04:31.112Z,-0.10
2018-03-01T16:06:58.529Z,-0.16
2018-03-01T16:09:25.948Z,-0.15
2018-03-01T16:11:53.365Z,-0.20
2018-03-01T16:14:20.780Z,-0.20
2018-03-01T16:16:48.203Z,-0.26
2018-03-01T16:19:15.617Z,-0.27
2018-03-01T16:21:43.041Z,-0.24
2018-03-01T16:24:10.446Z,-0.24
2018-03-01T16:26:37.872Z,-0.22
2018-03-01T16:29:05.296Z,-0.14
2018-03-01T16:31:32.726Z,-0.21
2018-03-01T16:34:00.130Z,-0.32
2018-03-01T16:36:27.547Z,-0.37
2018-03-01T16:38:54.957Z,-0.36
2018-03-01T16:41:22.373Z,-0.39
2018-03-01T16:43:49.787Z,-0.38
2018-03-01T16:46:17.200Z,-0.38
2018-03-01T16:48:44.604Z,-0.40
2018-03-01T16:51:12.025Z,-0.40
2018-03-01T16:53:39.483Z,-0.39
2018-03-01T16:56:07.107Z,-0.44
2018-03-01T16:58:34.533Z,-0.45
2018-03-01T17:01:01.961Z,-0.45
2018-03-01T17:03:29.381Z,-0.53
2018-03-01T17:05:57.744Z,-0.58
2018-03-01T17:08:25.170Z,-0.54
2018-03-01T17:10:52.590Z,-0.43
2018-03-01T17:13:20.001Z,-0.45
2018-03-01T17:15:47.412Z,-0.54
2018-03-01T17:18:14.820Z,-0.50
2018-03-01T17:20:42.572Z,-0.64
2018-03-01T17:23:09.989Z,-0.52
2018-03-01T17:25:37.405Z,-0.63
2018-03-01T17:28:05.010Z,-0.62
2018-03-01T17:30:32.401Z,-0.74
2018-03-01T17:32:59.825Z,-0.77
2018-03-01T17:35:27.237Z,-0.69
2018-03-01T17:37:54.670Z,-0.74
2018-03-01T17:40:22.072Z,-0.68
2018-03-01T17:42:49.831Z,-0.74
2018-03-01T17:45:17.226Z,-0.69
2018-03-01T17:47:44.642Z,-0.69
2018-03-01T17:50:12.050Z,-0.63
2018-03-01T17:52:39.469Z,-0.69
2018-03-01T17:55:06.882Z,-0.79
2018-03-01T17:57:34.368Z,-0.75
2018-03-01T18:00:01.773Z,-0.65
2018-03-01T18:02:29.197Z,-0.79
2018-03-01T18:04:56.597Z,-0.78
2018-03-01T18:07:24.015Z,-0.74
2018-03-01T18:09:51.421Z,-0.75
2018-03-01T18:12:18.841Z,-0.84
2018-03-01T18:14:46.252Z,-0.89
2018-03-01T18:17:13.669Z,-0.72
2018-03-01T18:19:41.104Z,-0.93
2018-03-01T18:22:08.517Z,-0.87
2018-03-01T18:24:35.930Z,-0.87
2018-03-01T18:27:04.157Z,-0.76
2018-03-01T18:29:31.583Z,-0.79
2018-03-01T18:31:58.990Z,-0.95
2018-03-01T18:34:26.413Z,-0.85
2018-03-01T18:36:53.841Z,-0.70
2018-03-01T18:39:21.264Z,-0.93
2018-03-01T18:41:48.674Z,-1.02
2018-03-01T18:44:16.489Z,-1.20
2018-03-01T18:46:43.901Z,-1.31
2018-03-01T18:49:11.598Z,-1.34
2018-03-01T18:51:39.009Z,-1.33
2018-03-01T18:54:06.434Z,-1.38
2018-03-01T18:56:33.846Z,-1.30
2018-03-01T18:59:01.267Z,-1.35
2018-03-01T19:01:28.683Z,-1.46
2018-03-01T19:03:56.106Z,-1.46
2018-03-01T19:06:23.508Z,-1.43
2018-03-01T19:08:50.919Z,-1.40
2018-03-01T19:11:18.346Z,-1.40
2018-03-01T19:13:45.766Z,-1.41
2018-03-01T19:16:13.189Z,-1.38
2018-03-01T19:18:40.593Z,-1.37
2018-03-01T19:21:08.013Z,-1.36
2018-03-01T19:23:35.435Z,-1.36
2018-03-01T19:26:02.861Z,-1.40
2018-03-01T19:28:30.269Z,-1.35
2018-03-01T19:30:57.694Z,-1.39
2018-03-01T19:33:25.097Z,-1.37
2018-03-01T19:35:52.519Z,-1.43
2018-03-01T19:38:19.934Z,-1.38
2018-03-01T19:40:47.350Z,-1.46
2018-03-01T19:43:14.796Z,-1.45
2018-03-01T19:45:42.182Z,-1.50
2018-03-01T19:48:09.594Z,-1.51
2018-03-01T19:50:37.017Z,-1.54
2018-03-01T19:53:04.436Z,-1.51
2018-03-01T19:55:31.855Z,-1.58
2018-03-01T19:57:59.266Z,-1.59
2018-03-01T20:00:26.678Z,-1.64
2018-03-01T20:02:54.085Z,-1.60
2018-03-01T20:05:21.507Z,-1.61
2018-03-01T20:07:48.917Z,-1.61
2018-03-01T20:10:16.338Z,-1.67
2018-03-01T20:12:43.750Z,-1.67
2018-03-01T20:15:11.163Z,-1.77
2018-03-01T20:17:38.589Z,-1.84
2018-03-01T20:20:05.988Z,-1.84
2018-03-01T20:22:33.409Z,-1.91
2018-03-01T20:25:00.824Z,-1.92
2018-03-01T20:27:28.249Z,-1.94
2018-03-01T20:29:55.654Z,-2.00
2018-03-01T20:32:23.063Z,-2.02
2018-03-01T20:34:50.474Z,-2.03
2018-03-01T20:37:17.892Z,-2.12
2018-03-01T20:39:45.301Z,-2.09
2018-03-01T20:42:12.724Z,-2.14
2018-03-01T20:44:40.130Z,-2.14
2018-03-01T20:47:07.550Z,-2.15
2018-03-01T20:49:34.957Z,-2.26
2018-03-01T20:52:02.369Z,-2.33
2018-03-01T20:54:30.552Z,-2.42
2018-03-01T20:56:57.966Z,-2.45
2018-03-01T20:59:25.448Z,-2.44
2018-03-01T21:01:53.915Z,-2.62
2018-03-01T21:04:21.322Z,-2.65
2018-03-01T21:06:48.747Z,-2.68
2018-03-01T21:09:17.342Z,-2.78
2018-03-01T21:11:44.765Z,-2.80
2018-03-01T21:14:12.173Z,-2.75
2018-03-01T21:16:39.613Z,-2.82
2018-03-01T21:19:07.016Z,-2.83
2018-03-01T21:21:34.421Z,-2.89
2018-03-01T21:24:01.848Z,-2.94
2018-03-01T21:26:29.253Z,-2.96
2018-03-01T21:28:56.674Z,-2.99
2018-03-01T21:31:24.761Z,-3.02
2018-03-01T21:33:52.173Z,-3.07
2018-03-01T21:36:19.656Z,-3.10
2018-03-01T21:38:47.081Z,-3.11
2018-03-01T21:41:14.499Z,-3.19
2018-03-01T21:43:41.910Z,-3.24
2018-03-01T21:46:09.325Z,-3.23
2018-03-01T21:48:36.744Z,-3.23
2018-03-01T21:51:04.150Z,-3.17
2018-03-01T21:53:31.580Z,-3.21
2018-03-01T21:55:58.994Z,-3.21
2018-03-01T21:58:26.410Z,-3.26
2018-03-01T22:02:38.805Z,-3.36
2018-03-01T22:05:06.210Z,-3.32
2018-03-01T22:07:33.618Z,-3.37
2018-03-01T22:10:01.026Z,-3.38
2018-03-01T22:12:28.438Z,-3.40
2018-03-01T22:14:55.859Z,-3.40
2018-03-01T22:17:23.257Z,-3.47
2018-03-01T22:19:50.695Z,-3.46
2018-03-01T22:22:18.106Z,-3.46
2018-03-01T22:24:45.525Z,-3.47
2018-03-01T22:27:12.941Z,-3.55
2018-03-01T22:29:40.361Z,-3.55
2018-03-01T22:32:07.772Z,-3.52
2018-03-01T22:34:35.208Z,-3.45
2018-03-01T22:37:02.620Z,-3.42
2018-03-01T22:39:30.042Z,-3.40
2018-03-01T22:41:57.441Z,-3.41
2018-03-01T22:44:25.231Z,-3.38
2018-03-01T22:46:52.641Z,-3.31
2018-03-01T22:49:20.073Z,-3.32
2018-03-01T22:51:47.481Z,-3.31
2018-03-01T22:54:14.903Z,-3.30
2018-03-01T22:56:42.308Z,-3.30
2018-03-01T22:59:09.725Z,-3.27
2018-03-01T23:01:37.137Z,-3.27
2018-03-01T23:04:04.599Z,-3.21
2018-03-01T23:06:32.660Z,-3.22
2018-03-01T23:09:00.081Z,-3.20
2018-03-01T23:11:27.494Z,-3.17
2018-03-01T23:13:55.962Z,-3.17
2018-03-01T23:16:23.366Z,-3.16
2018-03-01T23:18:50.785Z,-3.14
2018-03-01T23:21:18.194Z,-3.12
2018-03-01T23:23:45.610Z,-3.17
2018-03-01T23:26:13.024Z,-3.14
2018-03-01T23:28:40.432Z,-3.14
2018-03-01T23:31:07.855Z,-3.12
2018-03-01T23:33:35.307Z,-3.14
2018-03-01T23:36:02.717Z,-3.17
2018-03-01T23:38:30.430Z,-3.16
2018-03-01T23:40:57.845Z,-3.15
2018-03-01T23:43:25.257Z,-3.13
2018-03-01T23:45:52.683Z,-3.20
2018-03-01T23:48:20.084Z,-3.19
2018-03-01T23:50:47.505Z,-3.23
2018-03-01T23:53:14.923Z,-3.18
2018-03-01T23:55:42.344Z,-3.22
2018-03-01T23:58:09.757Z,-3.21
